• Join FlightAware (Why Join?)
  • Login
  • US Flag 
03:20AM EDT


 

Airport Tracker/Info


-or-


 

Live Flight TrackerFlight Track Log ✈ SWA1729 ✈ 15-Apr-2013 ✈ KBNA - KHOU

Flight Track Log - Related Links

Times and Time Zones

All times are in EDT time to prevent confusion due to time zone crossing. See the SWA1729 flight status page for this flight to view local times or setup timezone preferences in your user account.

Time Position Orientation Groundspeed Altitude Reporting Facility
EDT Latitude Longitude Course Direction KTS MPH feet Rate Location/Type
07:26PM 36.1000 -86.6833 258° West 164 189 1,300  Level Nashville TRACON
07:28PM 36.0833 -86.7833 258° West 243 280 3,600 1,200 Climbing Nashville TRACON
07:29PM 36.0833 -86.8500 270° West 262 302 4,000 1,800 Climbing Nashville TRACON
07:30PM 36.0878 -86.9922 272° West 273 314 8,200 2,340 Climbing Memphis Center
07:31PM 36.0922 -87.0744 274° West 267 307 10,100 1,740 Climbing Memphis Center
07:32PM 36.0969 -87.1819 273° West 292 336 11,700 2,400 Climbing Memphis Center
07:33PM 36.0853 -87.2931 263° West 321 369 14,900 2,820 Climbing Memphis Center
07:34PM 36.0628 -87.3992 255° West 326 375 17,400 2,100 Climbing Memphis Center
07:35PM 36.0406 -87.5128 256° West 331 381 19,200 1,320 Climbing Memphis Center
07:36PM 36.0142 -87.6419 256° West 352 405 20,100 1,320 Climbing Memphis Center
07:37PM 35.9878 -87.7711 256° West 375 432 21,900 1,680 Climbing Memphis Center
07:38PM 35.9631 -87.8975 256° West 381 438 23,500 1,440 Climbing Memphis Center
07:39PM 35.9028 -88.0122 237° Southwest 386 444 24,800 1,320 Climbing Memphis Center
07:40PM 35.8256 -88.1142 227° Southwest 397 457 26,200 1,380 Climbing Memphis Center
07:41PM 35.7581 -88.2006 226° Southwest 403 464 27,600 1,440 Climbing Memphis Center
07:42PM 35.6806 -88.2997 226° Southwest 403 464 29,100 1,380 Climbing Memphis Center
07:43PM 35.6050 -88.3986 227° Southwest 403 464 30,400 1,140 Climbing Memphis Center
07:44PM 35.5358 -88.4997 230° Southwest 403 464 31,400 1,260 Climbing Memphis Center
07:45PM 35.4894 -88.6206 245° Southwest 403 464 33,000 1,260 Climbing Memphis Center
07:46PM 35.4453 -88.7361 245° Southwest 392 451 34,000 480 Climbing Memphis Center
07:47PM 35.3858 -88.8342 233° Southwest 371 427 34,000  Level Memphis Center
07:48PM 35.3100 -88.9347 227° Southwest 371 427 34,000  Level Memphis Center
07:49PM 35.2358 -89.0225 224° Southwest 371 427 34,000  Level Memphis Center
07:50PM 35.1617 -89.1150 226° Southwest 381 438 34,000  Level Memphis Center
07:51PM 35.0917 -89.2050 226° Southwest 376 433 34,000  Level Memphis Center
07:52PM 35.0194 -89.2922 225° Southwest 376 433 34,000  Level Memphis Center
07:53PM 34.9492 -89.3792 225° Southwest 376 433 34,000  Level Memphis Center
07:54PM 34.8747 -89.4686 225° Southwest 376 433 34,000  Level Memphis Center
07:55PM 34.8106 -89.5478 225° Southwest 376 433 34,000  Level Memphis Center
07:56PM 34.7339 -89.6394 225° Southwest 376 433 34,000  Level Memphis Center
07:57PM 34.6614 -89.7308 226° Southwest 381 438 34,000  Level Memphis Center
07:58PM 34.5847 -89.8300 227° Southwest 381 438 34,000  Level Memphis Center
07:59PM 34.5161 -89.9186 227° Southwest 375 432 34,000  Level Memphis Center
08:00PM 34.4436 -90.0044 224° Southwest 375 432 34,000  Level Memphis Center
08:01PM 34.3706 -90.0956 226° Southwest 375 432 34,000  Level Memphis Center
08:02PM 34.3000 -90.1811 225° Southwest 369 425 34,000  Level Memphis Center
08:03PM 34.2269 -90.2692 225° Southwest 369 425 34,000  Level Memphis Center
08:04PM 34.1519 -90.3597 225° Southwest 380 437 34,000  Level Memphis Center
08:05PM 34.0789 -90.4475 225° Southwest 380 437 34,000  Level Memphis Center
08:06PM 34.0139 -90.5300 226° Southwest 385 443 34,000  Level Memphis Center
08:07PM 33.9367 -90.6200 224° Southwest 379 436 34,000  Level Memphis Center
08:08PM 33.8614 -90.7100 225° Southwest 384 442 34,000  Level Memphis Center
08:09PM 33.7775 -90.8069 224° Southwest 384 442 34,000  Level Memphis Center
08:10PM 33.7061 -90.8967 226° Southwest 378 435 34,000  Level Memphis Center
08:11PM 33.6286 -90.9883 225° Southwest 383 441 34,000  Level Memphis Center
08:12PM 33.5550 -91.0750 224° Southwest 383 441 34,000  Level Memphis Center
08:13PM 33.4878 -91.1542 224° Southwest 387 445 34,000  Level Memphis Center
08:15PM 33.3514 -91.3214 226° Southwest 387 445 34,000  Level Fort Worth Center
08:16PM 33.2742 -91.4061 223° Southwest 387 445 34,000  Level Fort Worth Center
08:17PM 33.2089 -91.4825 224° Southwest 387 445 34,000  Level Fort Worth Center
08:18PM 33.1219 -91.5850 225° Southwest 388 447 34,000  Level Fort Worth Center
08:19PM 33.0467 -91.6742 225° Southwest 388 447 34,000  Level Fort Worth Center
08:20PM 32.9692 -91.7608 223° Southwest 388 447 34,000  Level Fort Worth Center
08:21PM 32.9036 -91.8342 223° Southwest 383 441 34,100 900 Climbing Fort Worth Center
08:22PM 32.8322 -91.9178 225° Southwest 378 435 35,800 900 Climbing Fort Worth Center
08:23PM 32.7647 -91.9986 225° Southwest 368 423 36,000 60 Climbing Fort Worth Center
08:24PM 32.6872 -92.0847 223° Southwest 368 423 36,000  Level Fort Worth Center
08:25PM 32.6056 -92.1806 225° Southwest 368 423 36,000  Level Fort Worth Center
08:26PM 32.5317 -92.2639 224° Southwest 374 430 36,000  Level Fort Worth Center
08:28PM 32.3714 -92.4444 224° Southwest 375 432 36,000  Level Houston Center
08:29PM 32.2814 -92.5478 224° Southwest 377 434 36,000  Level Houston Center
08:30PM 32.2058 -92.6328 224° Southwest 377 434 36,000  Level Houston Center
08:31PM 32.1306 -92.7189 224° Southwest 378 435 36,000  Level Houston Center
08:32PM 32.0544 -92.8036 223° Southwest 379 436 36,000  Level Houston Center
08:33PM 31.9792 -92.8889 224° Southwest 378 435 36,000  Level Houston Center
08:34PM 31.9031 -92.9739 223° Southwest 378 435 36,000  Level Houston Center
08:35PM 31.8114 -93.0769 224° Southwest 379 436 36,000  Level Houston Center
08:37PM 31.7347 -93.1622 223° Southwest 380 437 36,000  Level Houston Center
08:38PM 31.6592 -93.2469 224° Southwest 377 434 36,000  Level Houston Center
08:39PM 31.5822 -93.3317 223° Southwest 377 434 36,000  Level Houston Center
08:40PM 31.5067 -93.4161 224° Southwest 377 434 36,000 -300 Level Houston Center
08:41PM 31.4128 -93.5178 223° Southwest 381 438 35,500 -780 Descending Houston Center
08:42PM 31.3369 -93.5994 223° Southwest 381 438 34,400 -1,260 Descending Houston Center
08:43PM 31.2597 -93.6853 224° Southwest 382 440 33,000 -1,320 Descending Houston Center
08:44PM 31.1811 -93.7719 223° Southwest 386 444 31,700 -1,260 Descending Houston Center
08:45PM 31.1019 -93.8561 222° Southwest 384 442 30,500 -1,440 Descending Houston Center
08:46PM 31.0233 -93.9433 224° Southwest 386 444 28,800 -1,740 Descending Houston Center
08:47PM 30.9258 -94.0486 223° Southwest 394 453 27,000 -1,440 Descending Houston Center
08:48PM 30.8469 -94.1361 224° Southwest 390 449 25,900 -1,020 Descending Houston Center
08:49PM 30.7683 -94.2194 222° Southwest 382 440 24,900 -1,020 Descending Houston Center
08:50PM 30.6931 -94.3008 223° Southwest 369 425 23,900 -1,020 Descending Houston Center
08:51PM 30.6211 -94.3814 224° Southwest 359 413 22,900 -1,080 Descending Houston Center
08:51PM 30.5786 -94.4286 224° Southwest 353 406 22,300 -1,200 Descending Houston Center
08:52PM 30.5481 -94.4581 220° Southwest 353 406 21,700 -1,920 Descending Houston Center
08:52PM 30.5044 -94.5061 224° Southwest 348 400 20,400 -2,040 Descending Houston Center
08:53PM 30.4808 -94.5364 228° Southwest 343 395 19,600 -2,160 Descending Houston Center
08:53PM 30.4511 -94.5858 235° Southwest 337 388 18,400 -2,160 Descending Houston Center
08:54PM 30.4258 -94.6247 233° Southwest 335 386 17,400 -2,100 Descending Houston Center
08:54PM 30.3964 -94.6706 233° Southwest 326 375 16,300 -1,980 Descending Houston Center
08:55PM 30.3731 -94.7089 235° Southwest 327 376 15,400 -2,100 Descending Houston Center
08:55PM 30.3414 -94.7550 231° Southwest 316 364 14,200 -2,340 Descending Houston Center
08:56PM 30.3108 -94.8056 235° Southwest 316 364 13,000 -1,080 Descending Houston Center
08:57PM 30.2828 -94.8447 230° Southwest 314 361 13,000 -240 Level Houston Center
08:57PM 30.2578 -94.8864 235° Southwest 316 364 12,800 -660 Descending Houston Center
08:57PM 30.2353 -94.9211 233° Southwest 321 369 12,400 -900 Descending Houston Center
08:58PM 30.2028 -94.9700 232° Southwest 324 373 11,900 -1,020 Descending Houston Center
08:59PM 30.1747 -95.0133 233° Southwest 328 377 11,300 -1,020 Descending Houston Center
08:59PM 30.1483 -95.0544 233° Southwest 328 377 10,900 -900 Descending Houston Center
09:00PM 30.1139 -95.0811 214° Southwest 334 384 10,500 -900 Descending Houston Center
09:00PM 30.0658 -95.1006 199° South 337 388 10,000 -540 Descending Houston Center
09:01PM 30.0292 -95.1183 203° Southwest 324 373 10,000  Level Houston Center
09:02PM 29.9483 -95.1522 200° South 298 343 10,000 -240 Level Houston Center
09:02PM 29.9081 -95.1694 200° South 299 344 9,600 -1,200 Descending Houston Center
09:03PM 29.8694 -95.1861 201° Southwest 276 318 8,800 -1,860 Descending Houston Center
09:03PM 29.8219 -95.2058 200° South 277 319 7,700 -1,680 Descending Houston Center
09:04PM 29.7989 -95.2164 202° Southwest 272 313 7,100 -1,800 Descending Houston Center
09:04PM 29.7819 -95.2669 249° West 285 328 5,900 -1,800 Descending Houston Center
09:05PM 29.7831 -95.2953 273° West 277 319 5,300 -1,620 Descending Houston Center
09:05PM 29.7906 -95.3511 279° West 270 311 4,300 -1,260 Descending Houston Center
09:06PM 29.7928 -95.3783 275° West 239 275 4,000 -1,380 Descending Houston Center
09:06PM 29.7667 -95.3992 215° Southwest 225 259 2,900 -1,680 Descending Houston Center
09:07PM 29.7478 -95.3933 165° South 186 214 2,300 -900 Descending Houston Center
09:07PM 29.7233 -95.3728 144° Southeast 196 226 2,000 -540 Descending Houston Center
09:08PM 29.7067 -95.3550 137° Southeast 152 175 1,700 -600 Descending Houston Center
09:08PM 29.6958 -95.3397 129° Southeast 166 191 1,400 -720 Descending Houston Center
09:09PM 29.6828 -95.3242 134° Southeast 127 146 1,000 -840 Descending Houston Center
09:09PM 29.6664 -95.3042 133° Southeast 142 163 600 -660 Descending Houston Center
09:10PM 29.6594 -95.2983 144° Southeast 125 144 400 -420 Descending Houston Center
09:10PM 29.6447 -95.2789 131° Southeast 134 154 200 -300 Descending Houston Center
09:12PM 29.6454 -95.2789 North  Level Estimated